createdAt,value
2022-11-24T00:00:32.362Z,97.41
2022-11-24T00:04:55.926Z,97.51
2022-11-24T00:09:00.115Z,97.70
2022-11-24T00:13:04.149Z,97.60
2022-11-24T00:17:07.762Z,97.43
2022-11-24T00:21:11.977Z,97.30
2022-11-24T00:25:15.669Z,97.44
2022-11-24T00:29:19.261Z,97.65
2022-11-24T00:33:22.908Z,97.43
2022-11-24T00:37:27.579Z,97.26
2022-11-24T00:41:32.521Z,97.35
2022-11-24T00:45:36.185Z,97.18
2022-11-24T00:49:39.914Z,97.52
2022-11-24T00:53:44.395Z,97.65
2022-11-24T00:57:48.054Z,97.63
2022-11-24T01:01:51.678Z,97.59
2022-11-24T01:05:55.426Z,97.59
2022-11-24T01:09:59.004Z,97.60
2022-11-24T01:14:02.573Z,97.67
2022-11-24T01:18:06.526Z,97.66
2022-11-24T01:22:10.225Z,97.56
2022-11-24T01:26:17.067Z,97.64
2022-11-24T01:30:22.600Z,97.78
2022-11-24T01:34:26.252Z,97.84
2022-11-24T01:38:29.947Z,97.73
2022-11-24T01:42:53.552Z,97.60
2022-11-24T01:47:29.298Z,97.55
2022-11-24T01:51:37.500Z,97.53
2022-11-24T01:55:41.849Z,97.78
2022-11-24T01:59:49.018Z,97.43
2022-11-24T02:03:53.762Z,97.75
2022-11-24T02:08:00.903Z,97.93
2022-11-24T02:12:05.560Z,97.64
2022-11-24T02:16:12.178Z,97.54
2022-11-24T02:20:17.996Z,97.63
2022-11-24T02:24:41.718Z,97.57
2022-11-24T02:28:46.778Z,97.59
2022-11-24T02:32:51.625Z,97.77
2022-11-24T02:36:55.304Z,97.63
2022-11-24T02:41:02.855Z,97.65
2022-11-24T02:45:09.659Z,97.55
2022-11-24T02:49:13.373Z,97.57
2022-11-24T02:53:16.971Z,97.42
2022-11-24T02:57:23.818Z,97.63
2022-11-24T03:01:27.420Z,97.55
2022-11-24T03:05:31.139Z,97.47
2022-11-24T03:09:34.790Z,97.57
2022-11-24T03:13:38.390Z,97.57
2022-11-24T03:17:42.201Z,97.59
2022-11-24T03:21:47.515Z,97.54
2022-11-24T03:25:51.126Z,97.61
2022-11-24T03:29:54.708Z,97.47
2022-11-24T03:33:58.291Z,97.47
2022-11-24T03:38:01.948Z,97.48
2022-11-24T03:42:05.927Z,97.50
2022-11-24T03:46:09.548Z,97.42
2022-11-24T03:50:13.184Z,97.47
2022-11-24T03:54:16.812Z,97.34
2022-11-24T03:58:20.896Z,97.59
2022-11-24T04:02:24.536Z,97.60
2022-11-24T04:06:28.231Z,97.68
2022-11-24T04:10:37.442Z,97.60
2022-11-24T04:14:41.541Z,97.55
2022-11-24T04:18:45.164Z,97.51
2022-11-24T04:22:50.613Z,97.48
2022-11-24T04:26:54.925Z,97.67
2022-11-24T04:31:03.176Z,97.68
2022-11-24T04:35:07.168Z,97.64
2022-11-24T04:39:19.669Z,97.59
2022-11-24T04:43:30.639Z,97.77
2022-11-24T04:47:34.663Z,97.76
2022-11-24T04:51:42.092Z,97.84
2022-11-24T04:55:45.666Z,97.68
2022-11-24T04:59:50.563Z,97.66
2022-11-24T05:03:55.447Z,97.74
2022-11-24T05:08:00.517Z,97.78
2022-11-24T05:12:04.239Z,97.57
2022-11-24T05:16:08.071Z,97.42
2022-11-24T05:20:11.760Z,97.59
2022-11-24T05:24:15.305Z,97.58
2022-11-24T05:28:19.286Z,97.56
2022-11-24T05:32:22.936Z,97.77
2022-11-24T05:36:45.184Z,97.73
2022-11-24T05:40:48.959Z,97.67
2022-11-24T05:44:53.594Z,97.72
2022-11-24T05:48:57.126Z,97.60
2022-11-24T05:53:09.104Z,97.61
2022-11-24T05:57:13.397Z,97.73
2022-11-24T06:01:16.799Z,97.87
2022-11-24T06:05:20.171Z,97.80
2022-11-24T06:09:23.547Z,97.62
2022-11-24T06:13:26.948Z,97.72
2022-11-24T06:17:30.547Z,97.67
2022-11-24T06:21:33.919Z,97.98
2022-11-24T06:25:37.193Z,98.03
2022-11-24T06:29:40.557Z,97.97
2022-11-24T06:33:43.915Z,97.71
2022-11-24T06:37:47.311Z,97.69
2022-11-24T06:41:51.127Z,97.88
2022-11-24T06:45:54.563Z,98.07
2022-11-24T06:49:58.292Z,97.92
2022-11-24T06:54:02.023Z,97.93
2022-11-24T06:58:05.791Z,97.84
2022-11-24T07:02:11.074Z,97.64
2022-11-24T07:06:15.574Z,97.66
2022-11-24T07:10:19.234Z,97.65
2022-11-24T07:14:22.604Z,97.57
2022-11-24T07:18:26.139Z,97.62
2022-11-24T07:22:29.546Z,97.71
2022-11-24T07:26:37.546Z,97.69
2022-11-24T07:30:40.964Z,97.47
2022-11-24T07:34:44.299Z,97.37
2022-11-24T07:38:48.049Z,97.25
2022-11-24T07:42:51.360Z,97.37
2022-11-24T07:46:54.825Z,97.37
2022-11-24T07:51:02.616Z,97.46
2022-11-24T07:55:06.729Z,97.34
2022-11-24T07:59:10.144Z,97.41
2022-11-24T08:03:13.557Z,97.36
2022-11-24T08:07:17.112Z,97.29
2022-11-24T08:11:20.656Z,97.11
2022-11-24T08:15:24.189Z,97.00
2022-11-24T08:19:27.675Z,96.61
2022-11-24T08:23:32.171Z,96.76
2022-11-24T08:27:36.061Z,96.69
2022-11-24T08:31:39.772Z,96.84
2022-11-24T08:35:43.144Z,97.02
2022-11-24T08:39:46.623Z,96.72
2022-11-24T08:43:50.385Z,96.60
2022-11-24T08:47:55.008Z,96.48
2022-11-24T08:51:58.538Z,96.64
2022-11-24T08:56:02.891Z,96.57
2022-11-24T09:00:07.173Z,96.38
2022-11-24T09:04:13.511Z,96.34
2022-11-24T09:08:16.963Z,96.37
2022-11-24T09:12:20.421Z,96.11
2022-11-24T09:16:29.348Z,96.27
2022-11-24T09:20:32.891Z,96.23
2022-11-24T09:24:36.344Z,96.19
2022-11-24T09:28:41.159Z,96.09
2022-11-24T09:32:44.562Z,95.87
2022-11-24T09:36:47.884Z,95.99
2022-11-24T09:40:52.615Z,95.99
2022-11-24T09:45:15.513Z,96.12
2022-11-24T09:49:30.726Z,95.97
2022-11-24T09:53:39.648Z,95.88
2022-11-24T09:57:44.343Z,95.81
2022-11-24T10:01:50.182Z,95.89
2022-11-24T10:05:54.185Z,96.11
2022-11-24T10:10:04.862Z,96.13
2022-11-24T10:14:17.527Z,95.85
2022-11-24T10:18:42.600Z,95.75
2022-11-24T10:22:58.490Z,95.65
2022-11-24T10:27:02.486Z,95.64
2022-11-24T10:31:30.430Z,95.65
2022-11-24T10:35:50.926Z,95.88
2022-11-24T10:45:01.722Z,95.98
2022-11-24T10:49:30.926Z,95.88
2022-11-24T10:53:36.338Z,95.77
2022-11-24T10:57:44.112Z,95.88
2022-11-24T11:01:48.520Z,95.58
2022-11-24T11:06:27.541Z,95.57
2022-11-24T11:10:32.426Z,95.36
2022-11-24T11:14:38.676Z,95.21
2022-11-24T11:18:49.136Z,95.36
2022-11-24T11:22:54.718Z,95.51
2022-11-24T11:27:05.616Z,95.57
2022-11-24T11:31:22.048Z,95.84
2022-11-24T11:35:33.855Z,95.67
2022-11-24T11:39:46.921Z,95.89
2022-11-24T11:44:03.169Z,96.02
2022-11-24T11:48:23.689Z,95.55
2022-11-24T11:52:33.448Z,95.11
2022-11-24T11:56:45.461Z,95.23
2022-11-24T12:01:00.610Z,95.31
2022-11-24T12:05:28.128Z,95.06
2022-11-24T12:09:59.668Z,95.07
2022-11-24T12:14:21.531Z,94.99
2022-11-24T12:18:55.775Z,94.88
2022-11-24T12:22:57.231Z,95.14
2022-11-24T12:27:23.461Z,95.24
2022-11-24T12:31:32.897Z,94.74
2022-11-24T12:35:49.408Z,94.82
2022-11-24T12:40:15.418Z,94.69
2022-11-24T12:44:56.709Z,94.85
2022-11-24T12:49:22.076Z,95.08
2022-11-24T12:53:30.587Z,95.13
2022-11-24T12:57:40.254Z,95.26
2022-11-24T13:01:53.889Z,94.83
2022-11-24T13:06:17.586Z,94.84
2022-11-24T13:10:40.479Z,95.02
2022-11-24T13:14:49.130Z,95.04
2022-11-24T13:19:08.925Z,95.21
2022-11-24T13:23:25.681Z,95.46
2022-11-24T13:27:40.421Z,95.25
2022-11-24T13:31:43.969Z,95.32
2022-11-24T13:36:02.876Z,95.14
2022-11-24T13:40:12.114Z,95.25
2022-11-24T13:44:15.535Z,95.34
2022-11-24T13:48:22.757Z,95.39
2022-11-24T13:52:41.347Z,95.69
2022-11-24T13:56:44.823Z,95.82
2022-11-24T14:01:07.396Z,95.34
2022-11-24T14:05:15.444Z,95.13
2022-11-24T14:09:41.650Z,95.00
2022-11-24T14:13:49.177Z,94.84
2022-11-24T14:17:53.169Z,95.15
2022-11-24T14:21:57.194Z,95.39
2022-11-24T14:26:02.214Z,95.52
2022-11-24T14:30:20.988Z,95.57
2022-11-24T14:34:28.495Z,95.26
2022-11-24T14:38:31.821Z,95.34
2022-11-24T14:42:35.204Z,95.18
2022-11-24T14:46:38.909Z,95.35
2022-11-24T14:50:42.604Z,95.56
2022-11-24T14:54:52.305Z,95.54
2022-11-24T14:58:57.917Z,95.42
2022-11-24T15:03:01.298Z,95.60
2022-11-24T15:07:13.872Z,95.56
2022-11-24T15:11:18.518Z,95.65
2022-11-24T15:15:31.444Z,95.70
2022-11-24T15:19:37.041Z,95.68
2022-11-24T15:23:43.258Z,95.50
2022-11-24T15:27:52.874Z,95.40
2022-11-24T15:31:58.912Z,95.30
2022-11-24T15:36:05.169Z,95.81
2022-11-24T15:40:10.712Z,95.55
2022-11-24T15:44:14.118Z,95.29
2022-11-24T15:48:20.282Z,95.23
2022-11-24T15:52:27.893Z,95.19
2022-11-24T15:56:35.271Z,95.41
2022-11-24T16:00:43.914Z,95.40
2022-11-24T16:04:52.552Z,95.61
2022-11-24T16:09:02.099Z,95.67
2022-11-24T16:13:09.585Z,95.56
2022-11-24T16:17:16.147Z,95.39
2022-11-24T16:21:24.276Z,95.42
2022-11-24T16:25:32.863Z,95.76
2022-11-24T16:29:38.499Z,95.79
2022-11-24T16:33:44.885Z,95.85
2022-11-24T16:37:51.064Z,95.50
2022-11-24T16:41:54.878Z,95.57
2022-11-24T16:46:07.372Z,95.53
2022-11-24T16:50:13.499Z,95.72
2022-11-24T16:54:24.821Z,95.83
2022-11-24T16:58:28.638Z,95.95
2022-11-24T17:02:34.150Z,95.70
2022-11-24T17:06:38.491Z,95.87
2022-11-24T17:10:44.796Z,96.18
2022-11-24T17:15:09.319Z,96.64
2022-11-24T17:19:15.428Z,96.38
2022-11-24T17:23:21.014Z,96.45
2022-11-24T17:27:27.024Z,96.49
2022-11-24T17:31:38.340Z,96.31
2022-11-24T17:35:42.887Z,96.06
2022-11-24T17:44:08.356Z,96.23
2022-11-24T17:48:12.613Z,96.17
2022-11-24T17:52:18.208Z,95.80
2022-11-24T17:56:25.640Z,95.67
2022-11-24T18:00:37.006Z,95.69
2022-11-24T18:04:40.315Z,95.88
2022-11-24T18:13:41.152Z,95.38
2022-11-24T18:17:43.400Z,95.57
2022-11-24T18:21:49.544Z,95.59
2022-11-24T18:25:56.289Z,95.70
2022-11-24T18:30:00.272Z,95.93
2022-11-24T18:34:09.035Z,95.76
2022-11-24T18:38:14.826Z,95.86
2022-11-24T18:42:18.214Z,95.99
2022-11-24T18:46:25.542Z,96.17
2022-11-24T18:50:30.387Z,96.45
2022-11-24T18:54:37.222Z,96.31
2022-11-24T18:58:45.505Z,96.20
2022-11-24T19:02:52.749Z,96.14
2022-11-24T19:06:57.187Z,95.80
2022-11-24T19:11:02.330Z,96.19
2022-11-24T19:15:10.210Z,95.89
2022-11-24T19:19:21.074Z,95.74
2022-11-24T19:23:24.952Z,95.74
2022-11-24T19:27:31.371Z,95.98
2022-11-24T19:31:38.530Z,95.93
2022-11-24T19:35:44.812Z,95.93
2022-11-24T19:39:49.438Z,95.87
2022-11-24T19:43:56.737Z,95.98
2022-11-24T19:48:03.007Z,96.17
2022-11-24T19:52:06.370Z,96.48
2022-11-24T19:56:16.747Z,96.69
2022-11-24T20:00:21.510Z,96.42
2022-11-24T20:04:25.594Z,96.28
2022-11-24T20:08:30.845Z,96.45
2022-11-24T20:12:36.206Z,96.41
2022-11-24T20:16:51.662Z,96.59
2022-11-24T20:21:03.877Z,96.49
2022-11-24T20:25:10.016Z,96.63
2022-11-24T20:29:19.002Z,96.59
2022-11-24T20:33:22.380Z,96.33
2022-11-24T20:41:50.476Z,96.40
2022-11-24T20:45:54.346Z,96.71
2022-11-24T20:49:58.020Z,96.89
2022-11-24T20:54:05.224Z,97.14
2022-11-24T20:58:09.683Z,97.01
2022-11-24T21:02:13.810Z,96.77
2022-11-24T21:06:17.700Z,96.11
2022-11-24T21:10:21.777Z,96.43
2022-11-24T21:14:25.752Z,97.12
2022-11-24T21:18:29.871Z,96.87
2022-11-24T21:22:33.981Z,96.59
2022-11-24T21:26:40.728Z,96.18
2022-11-24T21:30:44.242Z,95.89
2022-11-24T21:34:51.188Z,95.72
2022-11-24T21:39:00.218Z,95.65
2022-11-24T21:43:06.096Z,95.35
2022-11-24T21:47:12.764Z,95.82
2022-11-24T21:51:22.758Z,95.98
2022-11-24T21:55:27.021Z,95.81
2022-11-24T21:59:30.576Z,96.18
2022-11-24T22:03:34.145Z,96.62
2022-11-24T22:07:38.090Z,96.67
2022-11-24T22:11:42.255Z,96.31
2022-11-24T22:15:46.348Z,96.02
2022-11-24T22:19:49.846Z,96.37
2022-11-24T22:23:53.841Z,96.53
2022-11-24T22:27:58.573Z,96.27
2022-11-24T22:32:03.315Z,96.45
2022-11-24T22:36:07.178Z,96.95
2022-11-24T22:40:11.279Z,97.12
2022-11-24T22:44:14.644Z,97.33
2022-11-24T22:48:18.080Z,97.54
2022-11-24T22:52:22.404Z,97.57
2022-11-24T22:56:28.145Z,97.43
2022-11-24T23:00:31.872Z,97.21
2022-11-24T23:04:35.552Z,97.17
2022-11-24T23:08:42.718Z,97.22
2022-11-24T23:12:46.986Z,97.46
2022-11-24T23:16:50.639Z,97.57
2022-11-24T23:20:54.870Z,97.43
2022-11-24T23:24:58.357Z,97.29
2022-11-24T23:29:02.275Z,97.24
2022-11-24T23:33:06.324Z,97.47
2022-11-24T23:37:11.041Z,97.57
2022-11-24T23:41:18.613Z,97.16
2022-11-24T23:45:21.972Z,97.24
2022-11-24T23:49:25.318Z,97.09
2022-11-24T23:53:31.962Z,97.08
2022-11-24T23:57:35.622Z,97.17
